Terminal Aerodrome Forecast
Issued by NWS Jacksonville, FL

Home | Current Version | Previous Version | Text Only | Print | Product List | Glossary On
Versions: 1 2 3 4 5 6 7 8 9 10 11 12 13 14
000
FTUS42 KJAX 292300 RRA
TAFSSI
TAF
KSSI 292341Z 3000/3024 12010KT P6SM FEW020 BKN120 BKN250
     FM300200 15008KT P6SM FEW120 SCT250
     FM301400 11010KT P6SM SCT035=

USA.gov is the U.S. government's official web portal to all federal, state and local government web resources and services.